utilisation pie
utilisation bar
humidity graph
temperature graph
Station id: aae83c for 2 days

start:   stop:  

day time in temp out temp in RH out RH H quota rule action
2020-11-24 00:22:26 8.3 2.2 59 75 85 t
1
2020-11-24 00:52:38 8.1 1.8 59 77 85 t
1
2020-11-24 01:22:50 7.9 1.8 59 79 89 t
1
2020-11-24 01:53:03 7.8 1.8 59 80 90 t
1
2020-11-24 02:23:15 7.6 1.6 59 81 91 t
1
2020-11-24 02:53:27 7.5 1.3 60 82 90 t
1
2020-11-24 03:23:39 7.4 1.1 59 83 91 t
1
2020-11-24 03:53:51 7.2 0.9 59 84 92 t
1
2020-11-24 04:24:21 7.1 0.9 59 84 93 t
1
2020-11-24 04:54:33 7.4 0.9 58 85 94 t
1
2020-11-24 05:24:45 7.0 0.7 60 86 93 t
1
2020-11-24 05:54:57 7.3 0.7 59 88 95 h 0
2020-11-24 06:25:10 7.5 1.0 61 88 93 t
1
2020-11-24 06:55:22 7.5 1.4 59 88 98 h 0
2020-11-24 07:25:34 7.6 1.8 61 89 99 h 0
2020-11-24 07:55:47 8.0 2.2 58 90 104 h 0
2020-11-24 08:25:59 7.4 2.5 61 90 106 h 0
2020-11-24 08:56:11 7.3 2.9 62 91 110 h 0
2020-11-24 09:26:33 7.3 3.3 62 92 113 h 0
2020-11-24 09:56:55 7.3 3.8 62 92 117 h 0
2020-11-24 10:27:07 7.3 4.3 63 92 120 h 0
2020-11-24 10:57:20 7.3 4.7 63 92 123 h 0
2020-11-24 11:27:32 7.3 5.1 63 93 127 h 0
2020-11-24 11:57:44 7.3 5.4 63 93 129 h 0
2020-11-24 12:27:56 7.4 5.7 63 93 131 h 0
2020-11-24 12:58:08 7.4 5.9 63 94 134 h 0
2020-11-24 13:28:26 7.4 6.1 64 94 136 h 0
2020-11-24 13:58:38 7.4 6.1 64 94 135 h 0
2020-11-24 14:28:50 7.5 6.2 64 94 136 h 0
2020-11-24 14:59:03 7.5 6.2 64 94 136 h 0
2020-11-24 15:29:15 7.5 6.2 64 94 135 h 0
2020-11-24 15:59:27 8.3 6.3 62 95 135 h 0
2020-11-24 16:29:40 10.0 6.4 56 95 134 h 0
2020-11-24 16:59:52 8.9 6.5 60 95 136 h 0
2020-11-24 17:30:04 8.4 6.7 61 95 138 h 0
2020-11-24 18:00:16 9.3 6.8 78 95 103 h 0
2020-11-24 18:30:28 10.1 7.0 81 95 96 m
2
2020-11-24 19:00:40 10.4 7.2 79 95 98 h 0
2020-11-24 19:30:55 10.6 7.4 80 95 97 h 0
2020-11-24 20:01:08 10.7 7.5 80 95 97 h 0
2020-11-24 20:31:20 10.8 7.5 79 95 97 h 0
2020-11-24 21:01:32 10.8 7.2 74 95 101 h 0
2020-11-24 21:31:45 11.7 6.9 74 95 95 h 0
2020-11-24 22:01:57 11.3 6.5 73 95 95 h 0
2020-11-24 22:32:08 10.9 6.5 76 95 95 h 0
2020-11-24 23:02:21 10.6 6.5 77 95 94 h 0
2020-11-24 23:32:32 10.5 6.5 78 96 95 h 0
2020-11-25 00:02:44 10.3 6.5 78 96 96 h 0
2020-11-25 00:32:56 10.4 6.5 76 96 99 h 0
2020-11-25 01:03:08 11.2 6.7 74 96 97 h 0
2020-11-25 01:33:20 10.8 6.9 75 96 99 h 0
2020-11-25 02:03:37 10.6 7.1 75 96 102 h 0
2020-11-25 02:33:48 10.3 7.1 76 96 102 h 0
2020-11-25 03:04:00 10.1 7.1 77 96 103 h 0
2020-11-25 03:34:11 10.0 7.3 77 96 105 h 0
2020-11-25 04:04:23 9.9 7.7 77 96 108 h 0
2020-11-25 04:34:44 10.5 7.9 74 96 109 h 0
2020-11-25 05:04:57 11.3 8.2 70 96 111 h 0
2020-11-25 05:35:09 10.6 8.5 73 96 115 h 0


2020-11-25 06:29:57 CET